sensor_id;sensor_type;location;lat;lon;timestamp;temperature;humidity
51837;DHT22;38941;53.254;6.600;2023-11-21T00:01:49;9.70;99.90
51837;DHT22;38941;53.254;6.600;2023-11-21T00:03:50;9.60;99.90
51837;DHT22;38941;53.254;6.600;2023-11-21T00:05:51;9.50;99.90
51837;DHT22;38941;53.254;6.600;2023-11-21T00:07:52;9.50;99.90
51837;DHT22;38941;53.254;6.600;2023-11-21T00:09:53;9.60;99.90
51837;DHT22;38941;53.254;6.600;2023-11-21T00:11:56;9.90;99.90
51837;DHT22;38941;53.254;6.600;2023-11-21T00:13:56;9.60;99.90
51837;DHT22;38941;53.254;6.600;2023-11-21T00:15:58;9.60;99.90
51837;DHT22;38941;53.254;6.600;2023-11-21T00:18:00;9.60;99.90
51837;DHT22;38941;53.254;6.600;2023-11-21T00:20:00;9.60;99.90
51837;DHT22;38941;53.254;6.600;2023-11-21T00:22:01;9.60;99.90
51837;DHT22;38941;53.254;6.600;2023-11-21T00:24:02;9.60;99.90
51837;DHT22;38941;53.254;6.600;2023-11-21T00:26:03;9.60;99.90
51837;DHT22;38941;53.254;6.600;2023-11-21T00:28:04;9.60;99.90
51837;DHT22;38941;53.254;6.600;2023-11-21T00:30:06;10.20;99.90
51837;DHT22;38941;53.254;6.600;2023-11-21T00:32:09;9.60;99.90
51837;DHT22;38941;53.254;6.600;2023-11-21T00:34:12;9.60;99.90
51837;DHT22;38941;53.254;6.600;2023-11-21T00:36:13;9.70;99.90
51837;DHT22;38941;53.254;6.600;2023-11-21T00:38:13;9.50;99.90
51837;DHT22;38941;53.254;6.600;2023-11-21T00:40:14;10.00;99.90
51837;DHT22;38941;53.254;6.600;2023-11-21T00:42:16;9.50;99.90
51837;DHT22;38941;53.254;6.600;2023-11-21T00:44:17;9.60;99.90
51837;DHT22;38941;53.254;6.600;2023-11-21T00:46:18;9.50;99.90
51837;DHT22;38941;53.254;6.600;2023-11-21T00:48:18;9.50;99.90
51837;DHT22;38941;53.254;6.600;2023-11-21T00:50:19;9.60;99.90
51837;DHT22;38941;53.254;6.600;2023-11-21T00:52:20;9.50;99.90
51837;DHT22;38941;53.254;6.600;2023-11-21T00:54:21;9.50;99.90
51837;DHT22;38941;53.254;6.600;2023-11-21T00:56:22;9.50;99.90
51837;DHT22;38941;53.254;6.600;2023-11-21T00:58:23;9.50;99.90
51837;DHT22;38941;53.254;6.600;2023-11-21T01:00:25;9.50;99.90
51837;DHT22;38941;53.254;6.600;2023-11-21T01:02:26;9.80;99.90
51837;DHT22;38941;53.254;6.600;2023-11-21T01:04:27;9.50;99.90
51837;DHT22;38941;53.254;6.600;2023-11-21T01:06:28;9.50;99.90
51837;DHT22;38941;53.254;6.600;2023-11-21T01:08:28;9.50;99.90
51837;DHT22;38941;53.254;6.600;2023-11-21T01:10:29;9.50;99.90
51837;DHT22;38941;53.254;6.600;2023-11-21T01:12:30;9.70;99.90
51837;DHT22;38941;53.254;6.600;2023-11-21T01:14:32;9.40;99.90
51837;DHT22;38941;53.254;6.600;2023-11-21T01:16:32;9.50;99.90
51837;DHT22;38941;53.254;6.600;2023-11-21T01:18:33;9.50;99.90
51837;DHT22;38941;53.254;6.600;2023-11-21T01:20:35;9.70;99.90
51837;DHT22;38941;53.254;6.600;2023-11-21T01:22:36;9.40;99.90
51837;DHT22;38941;53.254;6.600;2023-11-21T01:24:36;9.50;99.90
51837;DHT22;38941;53.254;6.600;2023-11-21T01:26:37;9.60;99.90
51837;DHT22;38941;53.254;6.600;2023-11-21T01:28:38;9.50;99.90
51837;DHT22;38941;53.254;6.600;2023-11-21T01:30:38;9.50;99.90
51837;DHT22;38941;53.254;6.600;2023-11-21T01:32:39;9.80;99.90
51837;DHT22;38941;53.254;6.600;2023-11-21T01:34:41;9.50;99.90
51837;DHT22;38941;53.254;6.600;2023-11-21T01:36:41;9.50;99.90
51837;DHT22;38941;53.254;6.600;2023-11-21T01:38:42;9.60;99.90
51837;DHT22;38941;53.254;6.600;2023-11-21T01:40:43;10.10;99.90
51837;DHT22;38941;53.254;6.600;2023-11-21T01:42:44;9.70;99.90
51837;DHT22;38941;53.254;6.600;2023-11-21T01:44:47;9.50;99.90
51837;DHT22;38941;53.254;6.600;2023-11-21T01:46:51;9.50;99.90
51837;DHT22;38941;53.254;6.600;2023-11-21T01:48:52;9.50;99.90
51837;DHT22;38941;53.254;6.600;2023-11-21T01:50:54;9.60;99.90
51837;DHT22;38941;53.254;6.600;2023-11-21T01:52:55;9.60;99.90
51837;DHT22;38941;53.254;6.600;2023-11-21T01:54:58;9.60;99.90
51837;DHT22;38941;53.254;6.600;2023-11-21T01:57:00;9.60;99.90
51837;DHT22;38941;53.254;6.600;2023-11-21T01:59:03;9.60;99.90
51837;DHT22;38941;53.254;6.600;2023-11-21T02:01:04;10.00;99.90
51837;DHT22;38941;53.254;6.600;2023-11-21T02:03:05;9.50;99.90
51837;DHT22;38941;53.254;6.600;2023-11-21T02:05:07;9.50;99.90
51837;DHT22;38941;53.254;6.600;2023-11-21T02:07:09;9.50;99.90
51837;DHT22;38941;53.254;6.600;2023-11-21T02:09:10;9.50;99.90
51837;DHT22;38941;53.254;6.600;2023-11-21T02:11:16;9.50;99.90
51837;DHT22;38941;53.254;6.600;2023-11-21T02:13:17;9.60;99.90
51837;DHT22;38941;53.254;6.600;2023-11-21T02:15:18;9.60;99.90
51837;DHT22;38941;53.254;6.600;2023-11-21T02:17:22;9.50;99.90
51837;DHT22;38941;53.254;6.600;2023-11-21T02:19:23;9.50;99.90
51837;DHT22;38941;53.254;6.600;2023-11-21T02:21:25;9.50;99.90
51837;DHT22;38941;53.254;6.600;2023-11-21T02:23:27;9.50;99.90
51837;DHT22;38941;53.254;6.600;2023-11-21T02:25:30;9.80;99.90
51837;DHT22;38941;53.254;6.600;2023-11-21T02:27:32;9.60;99.90
51837;DHT22;38941;53.254;6.600;2023-11-21T02:29:33;9.60;99.90
51837;DHT22;38941;53.254;6.600;2023-11-21T02:31:34;9.60;99.90
51837;DHT22;38941;53.254;6.600;2023-11-21T02:33:35;9.50;99.90
51837;DHT22;38941;53.254;6.600;2023-11-21T02:35:36;9.50;99.90
51837;DHT22;38941;53.254;6.600;2023-11-21T02:37:36;10.00;99.90
51837;DHT22;38941;53.254;6.600;2023-11-21T02:39:37;10.00;99.90
51837;DHT22;38941;53.254;6.600;2023-11-21T02:41:38;9.50;99.90
51837;DHT22;38941;53.254;6.600;2023-11-21T02:43:39;9.60;99.90
51837;DHT22;38941;53.254;6.600;2023-11-21T02:45:40;9.60;99.90
51837;DHT22;38941;53.254;6.600;2023-11-21T02:47:45;9.70;99.90
51837;DHT22;38941;53.254;6.600;2023-11-21T02:49:45;9.90;99.90
51837;DHT22;38941;53.254;6.600;2023-11-21T02:51:46;9.80;99.90
51837;DHT22;38941;53.254;6.600;2023-11-21T02:53:47;9.80;99.90
51837;DHT22;38941;53.254;6.600;2023-11-21T02:55:47;9.50;99.90
51837;DHT22;38941;53.254;6.600;2023-11-21T02:57:48;9.60;99.90
51837;DHT22;38941;53.254;6.600;2023-11-21T02:59:49;9.60;99.90
51837;DHT22;38941;53.254;6.600;2023-11-21T03:01:50;9.70;99.90
51837;DHT22;38941;53.254;6.600;2023-11-21T03:03:51;9.50;99.90
51837;DHT22;38941;53.254;6.600;2023-11-21T03:05:52;10.00;99.90
51837;DHT22;38941;53.254;6.600;2023-11-21T03:07:53;9.60;99.90
51837;DHT22;38941;53.254;6.600;2023-11-21T03:09:54;9.90;99.90
51837;DHT22;38941;53.254;6.600;2023-11-21T03:11:55;9.70;99.90
51837;DHT22;38941;53.254;6.600;2023-11-21T03:13:56;9.60;99.90
51837;DHT22;38941;53.254;6.600;2023-11-21T03:15:56;9.60;99.90
51837;DHT22;38941;53.254;6.600;2023-11-21T03:17:57;9.60;99.90
51837;DHT22;38941;53.254;6.600;2023-11-21T03:19:58;9.60;99.90
51837;DHT22;38941;53.254;6.600;2023-11-21T03:21:58;10.10;99.90
51837;DHT22;38941;53.254;6.600;2023-11-21T03:23:59;9.80;99.90
51837;DHT22;38941;53.254;6.600;2023-11-21T03:26:00;10.10;99.90
51837;DHT22;38941;53.254;6.600;2023-11-21T03:28:01;9.90;99.90
51837;DHT22;38941;53.254;6.600;2023-11-21T03:30:02;9.60;99.90
51837;DHT22;38941;53.254;6.600;2023-11-21T03:32:04;9.60;99.90
51837;DHT22;38941;53.254;6.600;2023-11-21T03:34:05;9.50;99.90
51837;DHT22;38941;53.254;6.600;2023-11-21T03:36:07;9.50;99.90
51837;DHT22;38941;53.254;6.600;2023-11-21T03:38:10;9.50;99.90
51837;DHT22;38941;53.254;6.600;2023-11-21T03:40:11;9.50;99.90
51837;DHT22;38941;53.254;6.600;2023-11-21T03:42:14;9.50;99.90
51837;DHT22;38941;53.254;6.600;2023-11-21T03:44:14;9.50;99.90
51837;DHT22;38941;53.254;6.600;2023-11-21T03:46:15;9.50;99.90
51837;DHT22;38941;53.254;6.600;2023-11-21T03:48:16;9.90;99.90
51837;DHT22;38941;53.254;6.600;2023-11-21T03:50:16;9.50;99.90
51837;DHT22;38941;53.254;6.600;2023-11-21T03:52:17;9.60;99.90
51837;DHT22;38941;53.254;6.600;2023-11-21T03:54:18;9.60;99.90
51837;DHT22;38941;53.254;6.600;2023-11-21T03:56:19;9.50;99.90
51837;DHT22;38941;53.254;6.600;2023-11-21T03:58:22;9.70;99.90
51837;DHT22;38941;53.254;6.600;2023-11-21T04:00:23;9.50;99.90
51837;DHT22;38941;53.254;6.600;2023-11-21T04:02:24;9.50;99.90
51837;DHT22;38941;53.254;6.600;2023-11-21T04:04:26;9.50;99.90
51837;DHT22;38941;53.254;6.600;2023-11-21T04:06:27;9.50;99.90
51837;DHT22;38941;53.254;6.600;2023-11-21T04:08:27;9.50;99.90
51837;DHT22;38941;53.254;6.600;2023-11-21T04:10:28;9.50;99.90
51837;DHT22;38941;53.254;6.600;2023-11-21T04:12:29;9.40;99.90
51837;DHT22;38941;53.254;6.600;2023-11-21T04:14:30;9.40;99.90
51837;DHT22;38941;53.254;6.600;2023-11-21T04:16:30;9.60;99.90
51837;DHT22;38941;53.254;6.600;2023-11-21T04:18:31;9.50;99.90
51837;DHT22;38941;53.254;6.600;2023-11-21T04:20:32;9.40;99.90
51837;DHT22;38941;53.254;6.600;2023-11-21T04:22:32;9.60;99.90
51837;DHT22;38941;53.254;6.600;2023-11-21T04:24:33;9.50;99.90
51837;DHT22;38941;53.254;6.600;2023-11-21T04:26:34;9.70;99.90
51837;DHT22;38941;53.254;6.600;2023-11-21T04:28:35;9.40;99.90
51837;DHT22;38941;53.254;6.600;2023-11-21T04:30:36;9.40;99.90
51837;DHT22;38941;53.254;6.600;2023-11-21T04:32:37;9.40;99.90
51837;DHT22;38941;53.254;6.600;2023-11-21T04:34:37;9.40;99.90
51837;DHT22;38941;53.254;6.600;2023-11-21T04:36:39;9.60;99.90
51837;DHT22;38941;53.254;6.600;2023-11-21T04:38:40;9.30;99.90
51837;DHT22;38941;53.254;6.600;2023-11-21T04:40:41;9.40;99.90
51837;DHT22;38941;53.254;6.600;2023-11-21T04:42:42;9.40;99.90
51837;DHT22;38941;53.254;6.600;2023-11-21T04:44:42;9.40;99.90
51837;DHT22;38941;53.254;6.600;2023-11-21T04:46:45;9.70;99.90
51837;DHT22;38941;53.254;6.600;2023-11-21T04:48:46;9.60;99.90
51837;DHT22;38941;53.254;6.600;2023-11-21T04:50:47;9.40;99.90
51837;DHT22;38941;53.254;6.600;2023-11-21T04:52:48;9.90;99.90
51837;DHT22;38941;53.254;6.600;2023-11-21T04:54:49;9.40;99.90
51837;DHT22;38941;53.254;6.600;2023-11-21T04:56:50;9.40;99.90
51837;DHT22;38941;53.254;6.600;2023-11-21T04:58:51;9.40;99.90
51837;DHT22;38941;53.254;6.600;2023-11-21T05:00:52;9.60;99.90
51837;DHT22;38941;53.254;6.600;2023-11-21T05:02:53;9.40;99.90
51837;DHT22;38941;53.254;6.600;2023-11-21T05:04:54;9.40;99.90
51837;DHT22;38941;53.254;6.600;2023-11-21T05:06:56;9.40;99.90
51837;DHT22;38941;53.254;6.600;2023-11-21T05:08:57;9.40;99.90
51837;DHT22;38941;53.254;6.600;2023-11-21T05:10:59;9.40;99.90
51837;DHT22;38941;53.254;6.600;2023-11-21T05:13:00;9.40;99.90
51837;DHT22;38941;53.254;6.600;2023-11-21T05:15:00;9.40;99.90
51837;DHT22;38941;53.254;6.600;2023-11-21T05:17:01;9.40;99.90
51837;DHT22;38941;53.254;6.600;2023-11-21T05:19:02;9.40;99.90
51837;DHT22;38941;53.254;6.600;2023-11-21T05:21:04;9.40;99.90
51837;DHT22;38941;53.254;6.600;2023-11-21T05:23:05;9.40;99.90
51837;DHT22;38941;53.254;6.600;2023-11-21T05:25:06;9.60;99.90
51837;DHT22;38941;53.254;6.600;2023-11-21T05:27:11;9.30;99.90
51837;DHT22;38941;53.254;6.600;2023-11-21T05:29:13;9.50;99.90
51837;DHT22;38941;53.254;6.600;2023-11-21T05:31:14;9.50;99.90
51837;DHT22;38941;53.254;6.600;2023-11-21T05:33:14;9.50;99.90
51837;DHT22;38941;53.254;6.600;2023-11-21T05:35:15;9.30;99.90
51837;DHT22;38941;53.254;6.600;2023-11-21T05:37:16;9.40;99.90
51837;DHT22;38941;53.254;6.600;2023-11-21T05:39:18;9.30;99.90
51837;DHT22;38941;53.254;6.600;2023-11-21T05:41:20;9.70;99.90
51837;DHT22;38941;53.254;6.600;2023-11-21T05:43:20;9.40;99.90
51837;DHT22;38941;53.254;6.600;2023-11-21T05:45:21;9.30;99.90
51837;DHT22;38941;53.254;6.600;2023-11-21T05:47:22;9.70;99.90
51837;DHT22;38941;53.254;6.600;2023-11-21T05:49:23;9.60;99.90
51837;DHT22;38941;53.254;6.600;2023-11-21T05:51:23;9.40;99.90
51837;DHT22;38941;53.254;6.600;2023-11-21T05:53:25;9.40;99.90
51837;DHT22;38941;53.254;6.600;2023-11-21T05:55:26;9.40;99.90
51837;DHT22;38941;53.254;6.600;2023-11-21T05:57:27;9.40;99.90
51837;DHT22;38941;53.254;6.600;2023-11-21T05:59:27;9.40;99.90
51837;DHT22;38941;53.254;6.600;2023-11-21T06:01:28;9.30;99.90
51837;DHT22;38941;53.254;6.600;2023-11-21T06:03:29;9.30;99.90
51837;DHT22;38941;53.254;6.600;2023-11-21T06:05:29;9.50;99.90
51837;DHT22;38941;53.254;6.600;2023-11-21T06:07:32;9.30;99.90
51837;DHT22;38941;53.254;6.600;2023-11-21T06:09:33;9.30;99.90
51837;DHT22;38941;53.254;6.600;2023-11-21T06:11:35;9.40;99.90
51837;DHT22;38941;53.254;6.600;2023-11-21T06:13:36;9.30;99.90
51837;DHT22;38941;53.254;6.600;2023-11-21T06:15:36;9.20;99.90
51837;DHT22;38941;53.254;6.600;2023-11-21T06:17:37;9.30;99.90
51837;DHT22;38941;53.254;6.600;2023-11-21T06:19:39;9.10;99.90
51837;DHT22;38941;53.254;6.600;2023-11-21T06:21:40;9.60;99.90
51837;DHT22;38941;53.254;6.600;2023-11-21T06:23:41;9.20;99.90
51837;DHT22;38941;53.254;6.600;2023-11-21T06:25:41;9.20;99.90
51837;DHT22;38941;53.254;6.600;2023-11-21T06:27:44;9.20;99.90
51837;DHT22;38941;53.254;6.600;2023-11-21T06:29:45;9.20;99.90
51837;DHT22;38941;53.254;6.600;2023-11-21T06:31:45;9.10;99.90
51837;DHT22;38941;53.254;6.600;2023-11-21T06:33:46;9.10;99.90
51837;DHT22;38941;53.254;6.600;2023-11-21T06:35:47;9.10;99.90
51837;DHT22;38941;53.254;6.600;2023-11-21T06:37:48;9.20;99.90
51837;DHT22;38941;53.254;6.600;2023-11-21T06:39:49;9.40;99.90
51837;DHT22;38941;53.254;6.600;2023-11-21T06:41:52;9.20;99.90
51837;DHT22;38941;53.254;6.600;2023-11-21T06:43:53;9.10;99.90
51837;DHT22;38941;53.254;6.600;2023-11-21T06:45:54;9.20;99.90
51837;DHT22;38941;53.254;6.600;2023-11-21T06:47:55;8.90;99.90
51837;DHT22;38941;53.254;6.600;2023-11-21T06:49:56;9.30;99.90
51837;DHT22;38941;53.254;6.600;2023-11-21T06:51:57;9.00;99.90
51837;DHT22;38941;53.254;6.600;2023-11-21T06:53:59;9.00;99.90
51837;DHT22;38941;53.254;6.600;2023-11-21T06:55:59;9.00;99.90
51837;DHT22;38941;53.254;6.600;2023-11-21T06:58:00;9.10;99.90
51837;DHT22;38941;53.254;6.600;2023-11-21T07:00:01;9.00;99.90
51837;DHT22;38941;53.254;6.600;2023-11-21T07:02:02;8.90;99.90
51837;DHT22;38941;53.254;6.600;2023-11-21T07:04:03;8.90;99.90
51837;DHT22;38941;53.254;6.600;2023-11-21T07:06:04;8.90;99.90
51837;DHT22;38941;53.254;6.600;2023-11-21T07:08:05;8.90;99.90
51837;DHT22;38941;53.254;6.600;2023-11-21T07:10:06;8.90;99.90
51837;DHT22;38941;53.254;6.600;2023-11-21T07:12:08;8.90;99.90
51837;DHT22;38941;53.254;6.600;2023-11-21T07:14:09;8.90;99.90
51837;DHT22;38941;53.254;6.600;2023-11-21T07:16:09;8.90;99.90
51837;DHT22;38941;53.254;6.600;2023-11-21T07:18:10;8.90;99.90
51837;DHT22;38941;53.254;6.600;2023-11-21T07:20:12;8.90;99.90
51837;DHT22;38941;53.254;6.600;2023-11-21T07:22:12;8.90;99.90
51837;DHT22;38941;53.254;6.600;2023-11-21T07:24:14;8.80;99.90
51837;DHT22;38941;53.254;6.600;2023-11-21T07:26:15;9.30;99.90
51837;DHT22;38941;53.254;6.600;2023-11-21T07:28:15;8.80;99.90
51837;DHT22;38941;53.254;6.600;2023-11-21T07:30:16;8.80;99.90
51837;DHT22;38941;53.254;6.600;2023-11-21T07:32:18;8.80;99.90
51837;DHT22;38941;53.254;6.600;2023-11-21T07:34:20;8.80;99.90
51837;DHT22;38941;53.254;6.600;2023-11-21T07:36:21;8.80;99.90
51837;DHT22;38941;53.254;6.600;2023-11-21T07:38:21;8.80;99.90
51837;DHT22;38941;53.254;6.600;2023-11-21T07:40:22;8.80;99.90
51837;DHT22;38941;53.254;6.600;2023-11-21T07:42:23;8.80;99.90
51837;DHT22;38941;53.254;6.600;2023-11-21T07:44:26;8.80;99.90
51837;DHT22;38941;53.254;6.600;2023-11-21T07:46:28;8.80;99.90
51837;DHT22;38941;53.254;6.600;2023-11-21T07:48:31;8.80;99.90
51837;DHT22;38941;53.254;6.600;2023-11-21T07:50:32;8.80;99.90
51837;DHT22;38941;53.254;6.600;2023-11-21T07:52:33;8.80;99.90
51837;DHT22;38941;53.254;6.600;2023-11-21T07:54:34;9.00;99.90
51837;DHT22;38941;53.254;6.600;2023-11-21T07:56:36;8.90;99.90
51837;DHT22;38941;53.254;6.600;2023-11-21T07:58:37;8.90;99.90
51837;DHT22;38941;53.254;6.600;2023-11-21T08:00:38;8.80;99.90
51837;DHT22;38941;53.254;6.600;2023-11-21T08:02:40;8.90;99.90
51837;DHT22;38941;53.254;6.600;2023-11-21T08:04:42;8.90;99.90
51837;DHT22;38941;53.254;6.600;2023-11-21T08:06:43;8.90;99.90
51837;DHT22;38941;53.254;6.600;2023-11-21T08:08:44;8.80;99.90
51837;DHT22;38941;53.254;6.600;2023-11-21T08:10:45;8.90;99.90
51837;DHT22;38941;53.254;6.600;2023-11-21T08:12:56;8.90;99.90
51837;DHT22;38941;53.254;6.600;2023-11-21T08:14:57;8.90;99.90
51837;DHT22;38941;53.254;6.600;2023-11-21T08:16:57;8.80;99.90
51837;DHT22;38941;53.254;6.600;2023-11-21T08:18:58;8.90;99.90
51837;DHT22;38941;53.254;6.600;2023-11-21T08:20:58;9.10;99.90
51837;DHT22;38941;53.254;6.600;2023-11-21T08:22:59;8.90;99.90
51837;DHT22;38941;53.254;6.600;2023-11-21T08:25:00;8.90;99.90
51837;DHT22;38941;53.254;6.600;2023-11-21T08:27:00;9.10;99.90
51837;DHT22;38941;53.254;6.600;2023-11-21T08:29:02;8.90;99.90
51837;DHT22;38941;53.254;6.600;2023-11-21T08:31:04;8.90;99.90
51837;DHT22;38941;53.254;6.600;2023-11-21T08:33:05;8.90;99.90
51837;DHT22;38941;53.254;6.600;2023-11-21T08:35:07;8.90;99.90
51837;DHT22;38941;53.254;6.600;2023-11-21T08:37:07;8.90;99.90
51837;DHT22;38941;53.254;6.600;2023-11-21T08:39:08;8.80;99.90
51837;DHT22;38941;53.254;6.600;2023-11-21T08:41:10;8.80;99.90
51837;DHT22;38941;53.254;6.600;2023-11-21T08:43:11;8.80;99.90
51837;DHT22;38941;53.254;6.600;2023-11-21T08:45:12;8.80;99.90
51837;DHT22;38941;53.254;6.600;2023-11-21T08:47:13;8.90;99.90
51837;DHT22;38941;53.254;6.600;2023-11-21T08:49:14;8.90;99.90
51837;DHT22;38941;53.254;6.600;2023-11-21T08:51:15;8.80;99.90
51837;DHT22;38941;53.254;6.600;2023-11-21T08:53:16;8.80;99.90
51837;DHT22;38941;53.254;6.600;2023-11-21T08:55:18;8.80;99.90
51837;DHT22;38941;53.254;6.600;2023-11-21T08:57:20;8.70;99.90
51837;DHT22;38941;53.254;6.600;2023-11-21T08:59:21;8.70;99.90
51837;DHT22;38941;53.254;6.600;2023-11-21T09:01:23;8.80;99.90
51837;DHT22;38941;53.254;6.600;2023-11-21T09:03:23;8.80;99.90
51837;DHT22;38941;53.254;6.600;2023-11-21T09:05:24;8.70;99.90
51837;DHT22;38941;53.254;6.600;2023-11-21T09:07:26;8.80;99.90
51837;DHT22;38941;53.254;6.600;2023-11-21T09:09:27;8.80;99.90
51837;DHT22;38941;53.254;6.600;2023-11-21T09:11:28;8.80;99.90
51837;DHT22;38941;53.254;6.600;2023-11-21T09:13:34;8.80;99.90
51837;DHT22;38941;53.254;6.600;2023-11-21T09:15:36;8.80;99.90
51837;DHT22;38941;53.254;6.600;2023-11-21T09:17:36;8.80;99.90
51837;DHT22;38941;53.254;6.600;2023-11-21T09:19:38;8.80;99.90
51837;DHT22;38941;53.254;6.600;2023-11-21T09:21:38;8.90;99.90
51837;DHT22;38941;53.254;6.600;2023-11-21T09:23:39;8.80;99.90
51837;DHT22;38941;53.254;6.600;2023-11-21T09:25:40;8.80;99.90
51837;DHT22;38941;53.254;6.600;2023-11-21T09:27:40;8.90;99.90
51837;DHT22;38941;53.254;6.600;2023-11-21T09:29:41;8.90;99.90
51837;DHT22;38941;53.254;6.600;2023-11-21T09:31:42;8.80;99.90
51837;DHT22;38941;53.254;6.600;2023-11-21T09:33:44;8.90;99.90
51837;DHT22;38941;53.254;6.600;2023-11-21T09:35:45;8.90;99.90
51837;DHT22;38941;53.254;6.600;2023-11-21T09:37:45;8.80;99.90
51837;DHT22;38941;53.254;6.600;2023-11-21T09:39:46;8.80;99.90
51837;DHT22;38941;53.254;6.600;2023-11-21T09:41:52;8.90;99.90
51837;DHT22;38941;53.254;6.600;2023-11-21T09:43:57;8.80;99.90
51837;DHT22;38941;53.254;6.600;2023-11-21T09:46:01;8.90;99.90
51837;DHT22;38941;53.254;6.600;2023-11-21T09:48:02;8.90;99.90
51837;DHT22;38941;53.254;6.600;2023-11-21T09:50:04;8.90;99.90
51837;DHT22;38941;53.254;6.600;2023-11-21T09:52:09;8.90;99.90
51837;DHT22;38941;53.254;6.600;2023-11-21T09:54:12;9.00;99.90
51837;DHT22;38941;53.254;6.600;2023-11-21T09:56:15;9.00;99.90
51837;DHT22;38941;53.254;6.600;2023-11-21T09:58:20;9.00;99.90
51837;DHT22;38941;53.254;6.600;2023-11-21T10:00:23;9.10;99.90
51837;DHT22;38941;53.254;6.600;2023-11-21T10:02:26;9.10;99.90
51837;DHT22;38941;53.254;6.600;2023-11-21T10:04:28;9.20;99.90
51837;DHT22;38941;53.254;6.600;2023-11-21T10:06:30;9.10;99.90
51837;DHT22;38941;53.254;6.600;2023-11-21T10:08:32;9.10;99.90
51837;DHT22;38941;53.254;6.600;2023-11-21T10:10:33;9.10;99.90
51837;DHT22;38941;53.254;6.600;2023-11-21T10:12:36;9.20;99.90
51837;DHT22;38941;53.254;6.600;2023-11-21T10:14:41;9.20;99.90
51837;DHT22;38941;53.254;6.600;2023-11-21T10:16:44;9.30;99.90
51837;DHT22;38941;53.254;6.600;2023-11-21T10:18:50;9.30;99.90
51837;DHT22;38941;53.254;6.600;2023-11-21T10:20:54;9.30;99.90
51837;DHT22;38941;53.254;6.600;2023-11-21T10:22:55;9.30;99.90
51837;DHT22;38941;53.254;6.600;2023-11-21T10:24:57;9.20;99.90
51837;DHT22;38941;53.254;6.600;2023-11-21T10:26:57;9.20;99.90
51837;DHT22;38941;53.254;6.600;2023-11-21T10:29:00;9.30;99.90
51837;DHT22;38941;53.254;6.600;2023-11-21T10:31:01;9.20;99.90
51837;DHT22;38941;53.254;6.600;2023-11-21T10:33:02;9.30;99.90
51837;DHT22;38941;53.254;6.600;2023-11-21T10:35:03;9.30;99.90
51837;DHT22;38941;53.254;6.600;2023-11-21T10:37:13;9.40;99.90
51837;DHT22;38941;53.254;6.600;2023-11-21T10:39:18;9.50;99.90
51837;DHT22;38941;53.254;6.600;2023-11-21T10:41:20;9.50;99.90
51837;DHT22;38941;53.254;6.600;2023-11-21T10:43:25;9.60;99.90
51837;DHT22;38941;53.254;6.600;2023-11-21T10:45:26;9.50;99.90
51837;DHT22;38941;53.254;6.600;2023-11-21T10:47:31;9.50;99.90
51837;DHT22;38941;53.254;6.600;2023-11-21T10:49:32;9.50;99.90
51837;DHT22;38941;53.254;6.600;2023-11-21T10:51:33;9.40;99.90
51837;DHT22;38941;53.254;6.600;2023-11-21T10:53:33;9.40;99.90
51837;DHT22;38941;53.254;6.600;2023-11-21T10:55:34;9.40;99.90
51837;DHT22;38941;53.254;6.600;2023-11-21T10:57:35;9.40;99.90
51837;DHT22;38941;53.254;6.600;2023-11-21T10:59:36;9.40;99.90
51837;DHT22;38941;53.254;6.600;2023-11-21T11:01:37;9.40;99.90
51837;DHT22;38941;53.254;6.600;2023-11-21T11:03:37;9.40;99.90
51837;DHT22;38941;53.254;6.600;2023-11-21T11:05:38;9.40;99.90
51837;DHT22;38941;53.254;6.600;2023-11-21T11:07:43;9.40;99.90
51837;DHT22;38941;53.254;6.600;2023-11-21T11:09:45;9.40;99.90
51837;DHT22;38941;53.254;6.600;2023-11-21T11:11:46;9.40;99.90
51837;DHT22;38941;53.254;6.600;2023-11-21T11:13:47;9.50;99.90
51837;DHT22;38941;53.254;6.600;2023-11-21T11:15:48;9.50;99.90
51837;DHT22;38941;53.254;6.600;2023-11-21T11:17:49;9.50;99.90
51837;DHT22;38941;53.254;6.600;2023-11-21T11:19:50;9.60;99.90
51837;DHT22;38941;53.254;6.600;2023-11-21T11:26:53;10.00;99.90
51837;DHT22;38941;53.254;6.600;2023-11-21T11:32:16;10.20;99.90
51837;DHT22;38941;53.254;6.600;2023-11-21T11:34:02;10.30;99.90
51837;DHT22;38941;53.254;6.600;2023-11-21T11:38:17;10.50;99.90
51837;DHT22;38941;53.254;6.600;2023-11-21T11:40:18;10.60;99.90
51837;DHT22;38941;53.254;6.600;2023-11-21T11:42:22;10.80;99.90
51837;DHT22;38941;53.254;6.600;2023-11-21T11:44:53;10.80;99.90
51837;DHT22;38941;53.254;6.600;2023-11-21T11:46:56;11.00;99.90
51837;DHT22;38941;53.254;6.600;2023-11-21T11:49:04;11.10;99.90
51837;DHT22;38941;53.254;6.600;2023-11-21T11:53:14;11.20;99.90
51837;DHT22;38941;53.254;6.600;2023-11-21T11:55:17;11.20;99.90
51837;DHT22;38941;53.254;6.600;2023-11-21T11:57:24;11.30;99.90
51837;DHT22;38941;53.254;6.600;2023-11-21T11:59:25;11.30;99.90
51837;DHT22;38941;53.254;6.600;2023-11-21T12:01:26;11.40;99.90
51837;DHT22;38941;53.254;6.600;2023-11-21T12:03:27;11.40;99.90
51837;DHT22;38941;53.254;6.600;2023-11-21T12:05:28;11.40;99.90
51837;DHT22;38941;53.254;6.600;2023-11-21T12:09:48;11.50;99.90
51837;DHT22;38941;53.254;6.600;2023-11-21T12:11:49;11.50;99.90
51837;DHT22;38941;53.254;6.600;2023-11-21T12:13:50;11.60;99.90
51837;DHT22;38941;53.254;6.600;2023-11-21T12:15:53;11.80;99.90
51837;DHT22;38941;53.254;6.600;2023-11-21T12:17:55;11.80;99.90
51837;DHT22;38941;53.254;6.600;2023-11-21T12:20:02;11.90;99.90
51837;DHT22;38941;53.254;6.600;2023-11-21T12:22:05;11.90;99.90
51837;DHT22;38941;53.254;6.600;2023-11-21T12:24:06;11.90;99.90
51837;DHT22;38941;53.254;6.600;2023-11-21T12:26:09;12.00;99.90
51837;DHT22;38941;53.254;6.600;2023-11-21T12:28:11;12.10;99.90
51837;DHT22;38941;53.254;6.600;2023-11-21T12:30:13;12.20;99.90
51837;DHT22;38941;53.254;6.600;2023-11-21T12:32:14;12.30;99.90
51837;DHT22;38941;53.254;6.600;2023-11-21T12:34:16;12.20;99.90
51837;DHT22;38941;53.254;6.600;2023-11-21T12:36:18;12.20;99.90
51837;DHT22;38941;53.254;6.600;2023-11-21T12:38:19;12.10;99.90
51837;DHT22;38941;53.254;6.600;2023-11-21T12:40:20;12.20;99.90
51837;DHT22;38941;53.254;6.600;2023-11-21T12:42:23;12.40;99.90
51837;DHT22;38941;53.254;6.600;2023-11-21T12:44:25;12.40;99.90
51837;DHT22;38941;53.254;6.600;2023-11-21T12:46:26;12.30;99.90
51837;DHT22;38941;53.254;6.600;2023-11-21T12:48:31;12.20;99.90
51837;DHT22;38941;53.254;6.600;2023-11-21T12:50:32;12.20;99.90
51837;DHT22;38941;53.254;6.600;2023-11-21T12:52:33;12.10;99.90
51837;DHT22;38941;53.254;6.600;2023-11-21T12:54:35;12.20;99.90
51837;DHT22;38941;53.254;6.600;2023-11-21T12:56:39;12.10;99.90
51837;DHT22;38941;53.254;6.600;2023-11-21T12:58:40;12.00;99.90
51837;DHT22;38941;53.254;6.600;2023-11-21T13:00:49;11.80;99.90
51837;DHT22;38941;53.254;6.600;2023-11-21T13:02:51;11.70;99.90
51837;DHT22;38941;53.254;6.600;2023-11-21T13:04:54;11.50;99.90
51837;DHT22;38941;53.254;6.600;2023-11-21T13:07:04;11.40;99.90
51837;DHT22;38941;53.254;6.600;2023-11-21T13:09:14;11.40;99.90
51837;DHT22;38941;53.254;6.600;2023-11-21T13:11:21;11.30;99.90
51837;DHT22;38941;53.254;6.600;2023-11-21T13:13:24;11.30;99.90
51837;DHT22;38941;53.254;6.600;2023-11-21T13:15:28;11.20;99.90